Time;durP1;ratioP1;P1;durP2;ratioP2;P2;SDS_P1;SDS_P2;PMS_P1;PMS_P2;Temp;Humidity;BMP_temperature;BMP_pressure;BME280_temperature;BME280_humidity;BME280_pressure;Samples;Min_cycle;Max_cycle;Signal;HPM_P1;HPM_P2
2022/05/03 00:00:12;;;;;;;8.90;5.60;;;;;;;;;;10443934;28;20078;-71
2022/05/03 00:05:23;;;;;;;11.25;6.45;;;;;;;;;;10443203;28;20033;-70
2022/05/03 00:10:28;;;;;;;9.00;6.13;;;;;;;;;;10427162;28;20028;-69
2022/05/03 00:15:31;;;;;;;10.73;6.47;;;;;;;;;;10443641;28;20025;-78
2022/05/03 00:20:31;;;;;;;9.73;5.35;;;;;;;;;;10427051;28;20029;-76
2022/05/03 00:25:32;;;;;;;8.18;5.95;;;;;;;;;;10443668;28;20499;-73
2022/05/03 00:30:33;;;;;;;9.07;6.93;;;;;;;;;;10427394;28;20035;-73
2022/05/03 00:35:34;;;;;;;7.82;5.63;;;;;;;;;;10426696;28;20299;-71
2022/05/03 00:40:36;;;;;;;9.88;6.22;;;;;;;;;;10447703;28;20029;-71
2022/05/03 00:45:46;;;;;;;12.88;7.40;;;;;;;;;;10452724;28;20025;-71
2022/05/03 00:50:53;;;;;;;8.48;7.22;;;;;;;;;;10450877;28;20048;-69
2022/05/03 00:55:53;;;;;;;11.40;6.40;;;;;;;;;;10451287;28;20086;-73
2022/05/03 01:01:17;;;;;;;11.02;6.95;;;;;;;;;;10450999;28;20390;-72
2022/05/03 01:06:20;;;;;;;14.63;7.60;;;;;;;;;;10443174;28;20043;-69
2022/05/03 01:11:39;;;;;;;10.07;7.15;;;;;;;;;;10450551;28;20044;-71
2022/05/03 01:16:46;;;;;;;15.43;7.22;;;;;;;;;;10450162;28;20404;-74
2022/05/03 01:21:49;;;;;;;12.02;7.32;;;;;;;;;;10451607;28;20025;-72
2022/05/03 01:26:49;;;;;;;13.90;7.28;;;;;;;;;;10449965;28;20036;-72
2022/05/03 01:31:53;;;;;;;8.43;6.00;;;;;;;;;;10450188;28;20029;-73
2022/05/03 01:37:00;;;;;;;10.40;6.55;;;;;;;;;;10449624;28;20041;-71
2022/05/03 01:42:08;;;;;;;9.60;6.90;;;;;;;;;;10448847;28;20051;-72
2022/05/03 01:47:22;;;;;;;10.57;5.90;;;;;;;;;;10448989;28;20166;-72
2022/05/03 01:52:35;;;;;;;12.05;5.13;;;;;;;;;;10430699;28;20041;-70
2022/05/03 01:58:03;;;;;;;8.30;6.53;;;;;;;;;;10448949;28;20017;-76
2022/05/03 02:03:13;;;;;;;8.30;6.07;;;;;;;;;;10449173;28;20025;-74
2022/05/03 02:08:19;;;;;;;9.95;7.45;;;;;;;;;;10448915;28;20029;-70
2022/05/03 02:13:19;;;;;;;9.48;6.95;;;;;;;;;;10431581;28;20105;-70
2022/05/03 02:18:26;;;;;;;9.70;6.47;;;;;;;;;;10449495;28;20021;-69
2022/05/03 02:23:45;;;;;;;11.10;7.38;;;;;;;;;;10431074;28;20036;-74
2022/05/03 02:28:51;;;;;;;12.73;7.82;;;;;;;;;;10447557;28;20068;-68
2022/05/03 02:34:07;;;;;;;10.48;7.97;;;;;;;;;;10447671;28;20394;-74
2022/05/03 02:39:09;;;;;;;9.63;7.43;;;;;;;;;;10430894;28;20496;-77
2022/05/03 02:44:11;;;;;;;12.50;7.97;;;;;;;;;;10448022;28;20028;-74
2022/05/03 02:49:15;;;;;;;12.57;7.95;;;;;;;;;;10430730;28;20032;-76
2022/05/03 02:54:35;;;;;;;13.43;7.63;;;;;;;;;;10446313;28;20406;-72
2022/05/03 03:05:12;;;;;;;11.80;8.05;;;;;;;;;;10447905;28;20033;-75
2022/05/03 03:10:18;;;;;;;13.10;8.35;;;;;;;;;;10429741;28;20570;-70
2022/05/03 03:15:19;;;;;;;16.42;8.18;;;;;;;;;;10445184;28;20021;-69
2022/05/03 03:20:23;;;;;;;11.40;8.18;;;;;;;;;;10429373;28;20033;-70
2022/05/03 03:25:24;;;;;;;9.85;7.22;;;;;;;;;;10429135;28;20037;-70
2022/05/03 03:30:24;;;;;;;15.43;8.27;;;;;;;;;;10427980;28;20499;-75
2022/05/03 03:35:25;;;;;;;12.95;8.50;;;;;;;;;;10429045;28;20044;-71
2022/05/03 03:40:26;;;;;;;14.68;8.52;;;;;;;;;;10446434;28;20033;-72
2022/05/03 03:45:27;;;;;;;11.90;7.85;;;;;;;;;;10444760;28;20110;-71
2022/05/03 03:50:27;;;;;;;12.88;7.47;;;;;;;;;;10445755;28;20033;-74
2022/05/03 03:55:28;;;;;;;10.75;7.13;;;;;;;;;;10444040;28;20029;-76
2022/05/03 04:00:29;;;;;;;10.85;7.68;;;;;;;;;;10427416;28;20025;-78
2022/05/03 04:05:29;;;;;;;11.30;8.00;;;;;;;;;;10427654;28;20111;-73
2022/05/03 04:10:30;;;;;;;11.07;8.52;;;;;;;;;;10443918;28;20024;-70
2022/05/03 04:15:31;;;;;;;19.13;10.55;;;;;;;;;;10444288;28;20025;-74
2022/05/03 04:20:31;;;;;;;10.07;7.97;;;;;;;;;;10444496;28;20085;-69
2022/05/03 04:25:32;;;;;;;13.52;8.75;;;;;;;;;;10444789;28;20142;-70
2022/05/03 04:30:33;;;;;;;9.48;6.88;;;;;;;;;;10440653;28;20105;-70
2022/05/03 04:35:33;;;;;;;10.30;8.25;;;;;;;;;;10369421;28;20114;-70
2022/05/03 04:40:33;;;;;;;10.93;7.57;;;;;;;;;;10415011;28;20584;-73
2022/05/03 04:45:34;;;;;;;9.48;7.43;;;;;;;;;;10442121;28;20373;-69
2022/05/03 04:50:34;;;;;;;11.00;7.25;;;;;;;;;;10408040;28;20033;-73
2022/05/03 04:55:38;;;;;;;7.60;6.28;;;;;;;;;;10384991;28;20405;-71
2022/05/03 05:00:39;;;;;;;9.63;6.43;;;;;;;;;;10416292;28;20041;-73
2022/05/03 05:05:39;;;;;;;8.87;5.57;;;;;;;;;;10425969;28;20552;-75
2022/05/03 05:10:39;;;;;;;8.50;6.18;;;;;;;;;;10425471;28;20541;-73
2022/05/03 05:15:40;;;;;;;7.68;5.18;;;;;;;;;;10407452;28;20175;-70
2022/05/03 05:20:41;;;;;;;6.32;4.80;;;;;;;;;;10400476;28;20029;-70
2022/05/03 05:25:41;;;;;;;8.80;5.38;;;;;;;;;;10403491;28;20038;-70
2022/05/03 05:30:41;;;;;;;8.63;5.50;;;;;;;;;;10427809;28;20457;-70
2022/05/03 05:35:42;;;;;;;8.18;5.70;;;;;;;;;;10450944;28;20470;-71
2022/05/03 05:40:43;;;;;;;7.80;5.55;;;;;;;;;;10449582;28;20029;-70
2022/05/03 05:45:44;;;;;;;8.63;4.30;;;;;;;;;;10431906;28;20029;-74
2022/05/03 05:50:44;;;;;;;5.80;4.38;;;;;;;;;;10431841;28;20029;-75
2022/05/03 05:55:45;;;;;;;5.65;4.18;;;;;;;;;;10448056;28;20032;-73
2022/05/03 06:00:45;;;;;;;4.57;3.40;;;;;;;;;;10449887;28;20171;-74
2022/05/03 06:05:45;;;;;;;3.78;2.67;;;;;;;;;;10459129;28;20275;-76
2022/05/03 06:10:46;;;;;;;6.13;2.85;;;;;;;;;;10431339;28;20032;-70
2022/05/03 06:15:48;;;;;;;5.63;2.97;;;;;;;;;;10448521;28;20021;-76
2022/05/03 06:20:49;;;;;;;4.38;3.40;;;;;;;;;;10438031;28;20642;-73
2022/05/03 06:25:49;;;;;;;4.10;3.15;;;;;;;;;;10409536;28;20234;-71
2022/05/03 06:30:49;;;;;;;6.32;4.25;;;;;;;;;;10429319;28;20508;-73
2022/05/03 06:35:50;;;;;;;11.70;4.47;;;;;;;;;;10422197;28;20041;-73
2022/05/03 06:40:50;;;;;;;11.45;4.57;;;;;;;;;;10427172;28;20038;-75
2022/05/03 06:45:52;;;;;;;6.03;4.20;;;;;;;;;;10425050;28;20500;-73
2022/05/03 06:50:52;;;;;;;11.00;3.78;;;;;;;;;;10426822;28;20421;-74
2022/05/03 06:55:53;;;;;;;3.80;3.27;;;;;;;;;;10429562;28;20020;-71
2022/05/03 07:00:53;;;;;;;7.70;3.78;;;;;;;;;;10413859;28;20021;-72
2022/05/03 07:05:53;;;;;;;5.22;3.65;;;;;;;;;;10430066;28;20078;-70
2022/05/03 07:10:53;;;;;;;7.88;4.63;;;;;;;;;;10429759;28;20389;-69
2022/05/03 07:15:54;;;;;;;10.55;4.70;;;;;;;;;;10412785;28;20021;-70
2022/05/03 07:26:14;;;;;;;9.20;4.88;;;;;;;;;;10429359;28;20029;-72
2022/05/03 07:31:15;;;;;;;7.82;4.68;;;;;;;;;;10430119;28;20021;-69
2022/05/03 07:36:18;;;;;;;13.48;4.35;;;;;;;;;;10428874;28;20128;-68
2022/05/03 07:41:18;;;;;;;10.45;5.68;;;;;;;;;;10428468;28;20061;-70
2022/05/03 07:46:18;;;;;;;6.88;2.95;;;;;;;;;;10426419;28;20564;-70
2022/05/03 07:51:19;;;;;;;3.70;3.30;;;;;;;;;;10427390;28;20416;-70
2022/05/03 07:56:19;;;;;;;5.13;3.15;;;;;;;;;;10427059;28;20030;-74
2022/05/03 08:01:20;;;;;;;5.75;3.40;;;;;;;;;;10414215;28;20037;-72
2022/05/03 08:06:21;;;;;;;9.00;3.75;;;;;;;;;;10413702;28;20021;-72
2022/05/03 08:11:21;;;;;;;5.60;2.95;;;;;;;;;;10424325;28;20412;-69
2022/05/03 08:16:22;;;;;;;6.43;3.40;;;;;;;;;;10422792;28;20021;-72
2022/05/03 08:21:23;;;;;;;6.25;3.35;;;;;;;;;;10406669;28;20048;-71
2022/05/03 08:26:23;;;;;;;7.32;3.45;;;;;;;;;;10406677;28;20111;-70
2022/05/03 08:31:23;;;;;;;4.70;3.70;;;;;;;;;;10420731;28;20421;-70
2022/05/03 08:36:24;;;;;;;3.85;2.90;;;;;;;;;;10422000;28;20175;-71
2022/05/03 08:47:03;;;;;;;5.63;2.85;;;;;;;;;;10214693;28;20023;-71
2022/05/03 08:52:06;;;;;;;3.05;2.65;;;;;;;;;;10373726;28;20029;-69
2022/05/03 08:57:07;;;;;;;3.90;2.42;;;;;;;;;;10405542;28;20093;-75
2022/05/03 09:02:07;;;;;;;2.70;2.50;;;;;;;;;;10411696;28;20021;-69
2022/05/03 09:07:17;;;;;;;5.30;2.60;;;;;;;;;;10429384;28;20481;-71
2022/05/03 09:12:44;;;;;;;4.68;2.78;;;;;;;;;;10433737;28;20029;-75
2022/05/03 09:17:45;;;;;;;4.93;2.45;;;;;;;;;;10429375;28;20516;-74
2022/05/03 09:28:08;;;;;;;7.22;2.83;;;;;;;;;;10434318;28;20572;-73
2022/05/03 09:33:14;;;;;;;4.40;2.30;;;;;;;;;;10434606;28;20028;-68
2022/05/03 09:38:14;;;;;;;7.63;2.50;;;;;;;;;;10411212;28;20056;-70
2022/05/03 09:43:16;;;;;;;2.63;2.20;;;;;;;;;;10433044;28;20366;-74
2022/05/03 09:48:16;;;;;;;5.90;2.40;;;;;;;;;;10433371;28;20037;-71
2022/05/03 09:53:18;;;;;;;2.65;2.33;;;;;;;;;;10417295;28;20033;-73
2022/05/03 09:58:19;;;;;;;6.85;2.50;;;;;;;;;;10431324;28;20124;-70
2022/05/03 10:03:20;;;;;;;5.65;2.90;;;;;;;;;;10433503;28;20644;-70
2022/05/03 10:08:20;;;;;;;2.35;2.15;;;;;;;;;;10428354;28;20672;-74
2022/05/03 10:13:21;;;;;;;3.60;2.53;;;;;;;;;;10428424;28;20059;-70
2022/05/03 10:23:40;;;;;;;3.58;2.53;;;;;;;;;;10407204;28;20489;-69
2022/05/03 10:29:00;;;;;;;4.43;2.55;;;;;;;;;;10389732;28;20025;-70
2022/05/03 10:34:03;;;;;;;5.05;3.45;;;;;;;;;;10407122;28;20428;-70
2022/05/03 10:39:17;;;;;;;7.18;2.22;;;;;;;;;;10407099;28;20033;-74
2022/05/03 10:44:37;;;;;;;3.10;2.50;;;;;;;;;;10388941;28;20552;-70
2022/05/03 10:49:56;;;;;;;1.92;1.70;;;;;;;;;;10388718;28;20029;-70
2022/05/03 10:55:07;;;;;;;2.15;1.98;;;;;;;;;;10405300;28;20080;-69
2022/05/03 11:00:09;;;;;;;4.07;2.03;;;;;;;;;;10388049;28;20656;-71
2022/05/03 11:05:14;;;;;;;5.40;2.22;;;;;;;;;;10404932;28;20033;-71
2022/05/03 11:10:33;;;;;;;5.72;1.77;;;;;;;;;;10388397;28;20041;-74
2022/05/03 11:15:34;;;;;;;3.60;2.20;;;;;;;;;;10404519;28;20022;-73
2022/05/03 11:20:36;;;;;;;3.80;1.73;;;;;;;;;;10387963;28;20029;-75
2022/05/03 11:25:39;;;;;;;4.82;1.73;;;;;;;;;;10403485;28;21032;-71
2022/05/03 11:30:39;;;;;;;8.65;1.92;;;;;;;;;;10387220;28;20025;-76
2022/05/03 11:35:40;;;;;;;3.15;1.77;;;;;;;;;;10403236;28;20044;-72
2022/05/03 11:40:40;;;;;;;2.58;1.63;;;;;;;;;;10403996;28;20069;-73
2022/05/03 11:45:41;;;;;;;4.15;2.22;;;;;;;;;;10403393;28;20125;-75
2022/05/03 11:56:01;;;;;;;5.25;1.80;;;;;;;;;;10404803;28;20104;-70
2022/05/03 12:01:01;;;;;;;1.38;1.27;;;;;;;;;;10386905;28;20025;-69
2022/05/03 12:06:03;;;;;;;2.20;1.55;;;;;;;;;;10404494;28;20030;-69
2022/05/03 12:11:04;;;;;;;4.50;1.88;;;;;;;;;;10404219;28;20029;-75
2022/05/03 12:16:08;;;;;;;2.75;1.50;;;;;;;;;;10403480;28;20026;-77
2022/05/03 12:21:13;;;;;;;2.75;1.40;;;;;;;;;;10385922;28;20033;-73
2022/05/03 12:26:13;;;;;;;5.28;1.50;;;;;;;;;;10403066;28;20029;-70
2022/05/03 12:31:14;;;;;;;3.33;1.50;;;;;;;;;;10402944;28;20040;-71
2022/05/03 12:36:30;;;;;;;2.35;1.58;;;;;;;;;;10334957;28;20042;-69
2022/05/03 12:41:31;;;;;;;2.03;1.92;;;;;;;;;;10320701;28;20034;-72
2022/05/03 12:46:31;;;;;;;3.77;1.67;;;;;;;;;;10336353;28;20486;-73
2022/05/03 12:51:32;;;;;;;3.47;1.83;;;;;;;;;;10319931;28;20297;-74
2022/05/03 13:01:54;;;;;;;3.53;1.85;;;;;;;;;;10333917;28;20445;-73
2022/05/03 13:06:54;;;;;;;2.28;2.03;;;;;;;;;;10359376;28;20041;-74
2022/05/03 13:11:55;;;;;;;3.33;2.50;;;;;;;;;;10350373;28;20040;-75
2022/05/03 13:16:56;;;;;;;2.85;1.88;;;;;;;;;;10336143;28;20105;-70
2022/05/03 13:21:56;;;;;;;3.23;2.10;;;;;;;;;;10341183;28;20030;-71
2022/05/03 13:26:58;;;;;;;2.97;2.03;;;;;;;;;;10331693;28;20031;-76
2022/05/03 13:32:00;;;;;;;2.65;2.03;;;;;;;;;;10322493;28;20477;-69
2022/05/03 13:42:19;;;;;;;2.45;2.25;;;;;;;;;;10321922;28;20425;-70
2022/05/03 13:47:20;;;;;;;2.50;2.30;;;;;;;;;;10364943;28;20030;-70
2022/05/03 13:52:21;;;;;;;6.03;2.20;;;;;;;;;;10350858;28;20421;-74
2022/05/03 13:57:21;;;;;;;10.40;3.45;;;;;;;;;;10347997;28;20109;-70
2022/05/03 14:02:21;;;;;;;6.47;3.90;;;;;;;;;;10342212;28;20755;-70
2022/05/03 14:07:22;;;;;;;4.83;2.20;;;;;;;;;;10372772;28;20041;-74
2022/05/03 14:12:22;;;;;;;7.33;2.33;;;;;;;;;;10382434;28;20049;-73
2022/05/03 14:17:23;;;;;;;6.20;2.50;;;;;;;;;;10382474;28;20416;-72
2022/05/03 14:22:25;;;;;;;5.88;2.50;;;;;;;;;;10365253;28;20350;-70
2022/05/03 14:27:25;;;;;;;4.32;2.90;;;;;;;;;;10349658;28;20034;-69
2022/05/03 14:32:26;;;;;;;4.10;2.47;;;;;;;;;;10381345;28;20488;-72
2022/05/03 14:37:27;;;;;;;2.50;2.28;;;;;;;;;;10435154;28;20072;-69
2022/05/03 14:42:28;;;;;;;3.85;2.42;;;;;;;;;;10446760;28;20032;-70
2022/05/03 14:47:28;;;;;;;3.45;2.42;;;;;;;;;;10416736;28;20091;-73
2022/05/03 14:52:28;;;;;;;11.18;5.55;;;;;;;;;;10389041;28;20116;-72
2022/05/03 15:07:54;;;;;;;3.83;2.78;;;;;;;;;;10405654;28;20160;-71
2022/05/03 15:12:56;;;;;;;13.00;4.72;;;;;;;;;;10388069;28;20021;-69
2022/05/03 15:17:57;;;;;;;10.85;4.95;;;;;;;;;;10387899;28;20096;-73
2022/05/03 15:28:16;;;;;;;3.88;3.13;;;;;;;;;;10405425;28;20021;-75
2022/05/03 15:33:18;;;;;;;6.13;2.80;;;;;;;;;;10386653;28;20513;-70
2022/05/03 15:38:18;;;;;;;6.28;3.13;;;;;;;;;;10404350;28;20031;-71
2022/05/03 15:43:19;;;;;;;5.10;3.13;;;;;;;;;;10404397;28;20033;-73
2022/05/03 15:48:19;;;;;;;4.38;3.15;;;;;;;;;;10408232;28;20090;-75
2022/05/03 15:53:23;;;;;;;5.60;3.17;;;;;;;;;;10440657;28;20045;-71
2022/05/03 15:58:26;;;;;;;6.38;4.40;;;;;;;;;;10386152;28;20031;-71
2022/05/03 16:03:27;;;;;;;4.85;3.25;;;;;;;;;;10410528;28;20031;-75
2022/05/03 16:08:27;;;;;;;3.72;3.03;;;;;;;;;;10402873;28;20045;-71
2022/05/03 16:13:28;;;;;;;3.22;2.45;;;;;;;;;;10385814;28;20040;-73
2022/05/03 16:18:28;;;;;;;5.50;3.38;;;;;;;;;;10409121;28;20084;-71
2022/05/03 16:23:28;;;;;;;9.05;3.45;;;;;;;;;;10402332;28;20030;-71
2022/05/03 16:28:28;;;;;;;3.80;3.20;;;;;;;;;;10403939;28;20030;-70
2022/05/03 16:33:29;;;;;;;5.65;3.55;;;;;;;;;;10402743;28;20044;-70
2022/05/03 16:43:48;;;;;;;6.65;3.55;;;;;;;;;;10444164;28;20032;-73
2022/05/03 16:48:48;;;;;;;7.03;4.55;;;;;;;;;;10426019;28;20024;-71
2022/05/03 16:53:48;;;;;;;12.63;6.90;;;;;;;;;;10423831;28;20029;-77
2022/05/03 16:58:49;;;;;;;13.65;4.78;;;;;;;;;;10425650;28;20044;-69
2022/05/03 17:03:49;;;;;;;7.38;4.25;;;;;;;;;;10423586;28;20560;-71
2022/05/03 17:08:49;;;;;;;14.00;4.83;;;;;;;;;;10439816;28;20029;-72
2022/05/03 17:13:49;;;;;;;9.35;5.28;;;;;;;;;;10405039;28;20066;-76
2022/05/03 17:18:50;;;;;;;7.50;4.93;;;;;;;;;;10409538;28;20034;-70
2022/05/03 17:23:51;;;;;;;11.63;5.47;;;;;;;;;;10455287;23;20052;-72
2022/05/03 17:28:52;;;;;;;6.68;5.30;;;;;;;;;;10439172;28;20381;-76
2022/05/03 17:33:54;;;;;;;6.72;4.78;;;;;;;;;;10434805;28;20118;-75
2022/05/03 17:38:54;;;;;;;13.80;5.55;;;;;;;;;;10434483;28;20057;-72
2022/05/03 17:43:56;;;;;;;7.18;5.18;;;;;;;;;;10436526;28;20538;-69
2022/05/03 17:48:56;;;;;;;9.80;4.93;;;;;;;;;;10434611;28;20032;-69
2022/05/03 17:53:58;;;;;;;7.88;5.70;;;;;;;;;;10437813;28;20032;-70
2022/05/03 17:58:58;;;;;;;10.10;4.82;;;;;;;;;;10437509;28;20436;-74
2022/05/03 18:04:00;;;;;;;10.38;6.53;;;;;;;;;;10413070;28;20021;-75
2022/05/03 18:09:02;;;;;;;12.65;8.55;;;;;;;;;;10421143;28;20095;-71
2022/05/03 18:14:02;;;;;;;12.88;8.43;;;;;;;;;;10436314;28;20481;-68
2022/05/03 18:19:02;;;;;;;12.77;7.20;;;;;;;;;;10434920;28;20032;-75
2022/05/03 18:24:03;;;;;;;13.10;7.75;;;;;;;;;;10435108;28;20049;-70
2022/05/03 18:29:04;;;;;;;13.10;7.95;;;;;;;;;;10422003;28;20036;-72
2022/05/03 18:34:04;;;;;;;14.27;8.68;;;;;;;;;;10417625;28;20115;-74
2022/05/03 18:39:05;;;;;;;13.75;8.02;;;;;;;;;;10428951;28;20029;-69
2022/05/03 18:44:07;;;;;;;10.40;6.43;;;;;;;;;;10446669;28;20033;-75
2022/05/03 18:49:07;;;;;;;13.15;7.43;;;;;;;;;;10446149;28;20036;-69
2022/05/03 18:59:26;;;;;;;11.52;7.47;;;;;;;;;;10445875;28;20644;-71
2022/05/03 19:04:27;;;;;;;17.50;8.60;;;;;;;;;;10434413;28;20036;-73
2022/05/03 19:09:27;;;;;;;17.95;9.68;;;;;;;;;;10427617;28;20035;-75
2022/05/03 19:14:28;;;;;;;17.10;8.93;;;;;;;;;;10434729;28;20412;-75
2022/05/03 19:19:28;;;;;;;15.20;10.35;;;;;;;;;;10435896;28;20033;-69
2022/05/03 19:35:06;;;;;;;12.77;8.63;;;;;;;;;;10444171;28;20029;-70
2022/05/03 19:40:07;;;;;;;10.88;6.82;;;;;;;;;;10428360;28;20028;-73
2022/05/03 19:45:09;;;;;;;9.73;5.57;;;;;;;;;;10444365;28;20510;-76
2022/05/03 19:50:09;;;;;;;9.52;5.80;;;;;;;;;;10398062;28;20441;-70
2022/05/03 19:55:11;;;;;;;7.45;5.03;;;;;;;;;;10387188;28;20455;-74
2022/05/03 20:00:13;;;;;;;9.80;6.40;;;;;;;;;;10415581;28;20478;-73
2022/05/03 20:05:13;;;;;;;10.05;5.50;;;;;;;;;;10427487;28;20075;-70
2022/05/03 20:10:14;;;;;;;8.20;5.90;;;;;;;;;;10443618;28;20078;-69
2022/05/03 20:15:15;;;;;;;6.38;4.35;;;;;;;;;;10445067;28;20403;-73
2022/05/03 20:20:16;;;;;;;8.85;4.97;;;;;;;;;;10443848;28;20025;-70
2022/05/03 20:25:17;;;;;;;10.82;5.82;;;;;;;;;;10444652;28;20057;-71
2022/05/03 20:30:17;;;;;;;9.07;5.43;;;;;;;;;;10426378;28;20017;-71
2022/05/03 20:35:18;;;;;;;14.15;8.10;;;;;;;;;;10444489;28;20070;-71
2022/05/03 20:40:18;;;;;;;12.73;6.10;;;;;;;;;;10443152;28;20574;-74
2022/05/03 20:45:19;;;;;;;10.13;5.82;;;;;;;;;;10442810;28;20263;-74
2022/05/03 20:50:19;;;;;;;13.25;5.78;;;;;;;;;;10443064;28;20035;-69
2022/05/03 20:55:19;;;;;;;7.27;5.93;;;;;;;;;;10445204;28;20025;-70
2022/05/03 21:00:19;;;;;;;9.45;6.53;;;;;;;;;;10451006;28;20021;-75
2022/05/03 21:05:23;;;;;;;10.45;7.63;;;;;;;;;;10450792;28;20028;-69
2022/05/03 21:10:24;;;;;;;10.20;6.60;;;;;;;;;;10450640;28;20074;-71
2022/05/03 21:15:24;;;;;;;16.85;8.00;;;;;;;;;;10450661;28;20078;-71
2022/05/03 21:20:24;;;;;;;15.65;5.72;;;;;;;;;;10450976;28;20037;-70
2022/05/03 21:25:24;;;;;;;15.40;8.23;;;;;;;;;;10417242;28;20539;-74
2022/05/03 21:30:25;;;;;;;9.63;6.90;;;;;;;;;;10450059;28;20037;-70
2022/05/03 21:35:25;;;;;;;19.33;9.32;;;;;;;;;;10450084;28;20017;-74
2022/05/03 21:40:25;;;;;;;12.07;6.72;;;;;;;;;;10449916;28;20507;-70
2022/05/03 21:45:26;;;;;;;9.97;7.10;;;;;;;;;;10450997;28;20409;-70
2022/05/03 21:50:27;;;;;;;11.98;7.65;;;;;;;;;;10450180;28;20032;-77
2022/05/03 21:55:28;;;;;;;10.30;7.37;;;;;;;;;;10449356;28;20100;-71
2022/05/03 22:00:34;;;;;;;10.13;6.43;;;;;;;;;;10432616;28;20139;-72
2022/05/03 22:05:35;;;;;;;12.52;7.05;;;;;;;;;;10450099;28;20124;-70
2022/05/03 22:10:35;;;;;;;9.45;6.45;;;;;;;;;;10431975;28;20404;-70
2022/05/03 22:15:35;;;;;;;10.10;5.80;;;;;;;;;;10448100;28;20040;-70
2022/05/03 22:20:36;;;;;;;11.65;6.20;;;;;;;;;;10447175;28;20128;-77
2022/05/03 22:25:37;;;;;;;11.00;6.20;;;;;;;;;;10431372;28;20037;-78
2022/05/03 22:30:37;;;;;;;11.93;6.17;;;;;;;;;;10447458;28;20021;-69
2022/05/03 22:35:37;;;;;;;12.33;6.57;;;;;;;;;;10448157;28;20713;-69
2022/05/03 22:40:38;;;;;;;11.82;6.10;;;;;;;;;;10446755;28;20333;-71
2022/05/03 22:45:42;;;;;;;9.27;6.50;;;;;;;;;;10447269;28;20053;-70
2022/05/03 22:50:42;;;;;;;14.00;6.35;;;;;;;;;;10448539;28;20040;-71
2022/05/03 22:55:42;;;;;;;14.30;7.13;;;;;;;;;;10430201;28;20036;-71
2022/05/03 23:00:43;;;;;;;15.20;7.57;;;;;;;;;;10430053;28;20396;-71
2022/05/03 23:05:43;;;;;;;10.25;6.65;;;;;;;;;;10413451;28;20017;-71
2022/05/03 23:10:43;;;;;;;11.98;8.25;;;;;;;;;;10446213;28;20029;-71
2022/05/03 23:15:46;;;;;;;17.27;8.10;;;;;;;;;;10447410;28;20158;-69
2022/05/03 23:20:46;;;;;;;10.10;6.95;;;;;;;;;;10428976;28;20056;-76
2022/05/03 23:25:47;;;;;;;17.48;9.05;;;;;;;;;;10429225;28;20119;-71
2022/05/03 23:30:47;;;;;;;13.85;8.15;;;;;;;;;;10428762;28;20036;-76
2022/05/03 23:35:50;;;;;;;16.02;8.45;;;;;;;;;;10428520;28;20404;-70
2022/05/03 23:40:51;;;;;;;17.17;8.80;;;;;;;;;;10446371;28;20016;-73
2022/05/03 23:46:10;;;;;;;16.17;8.32;;;;;;;;;;10403627;28;20052;-70
2022/05/03 23:51:10;;;;;;;11.73;8.60;;;;;;;;;;10387403;28;20467;-74
2022/05/03 23:56:10;;;;;;;13.63;8.43;;;;;;;;;;10441026;28;20079;-74
